Date,TemperatureHighF,TemperatureAvgF,TemperatureLowF,DewpointHighF,DewpointAvgF,DewpointLowF,HumidityHigh,HumidityAvg,HumidityLow,PressureMaxIn,PressureMinIn,WindSpeedMaxMPH,WindSpeedAvgMPH,GustSpeedMaxMPH,PrecipitationSumIn
2014-1-1,20.0,17.5,14.0,15.9,14.5,11.1,92,88,81,30.34,30.21,5,2,9,0.00
2014-1-2,18.1,14.8,10.0,13.5,10.7,6.9,89,84,67,30.45,30.09,13,5,16,0.00
2014-1-3,15.4,7.9,-6.8,10.1,2.8,-11.6,87,79,72,30.54,30.08,5,1,6,0.00
2014-1-4,31.8,26.5,14.9,29.3,20.5,9.6,98,79,68,30.07,29.94,13,5,15,0.03
2014-1-5,30.4,23.6,0.5,30.4,22.9,-3.4,100,97,83,30.05,29.84,18,8,28,0.00
2014-1-6,0.0,-11.4,-15.1,-4.2,-17.8,-22.0,82,72,67,30.39,30.04,13,9,17,0.00
2014-1-7,4.7,-4.2,-12.5,0.0,-11.7,-99.9,81,74,71,30.45,30.32,8,4,11,0.00
2014-1-8,18.4,7.3,-0.8,11.2,2.8,-4.5,87,81,71,30.58,30.33,4,0,5,0.00
2014-1-9,26.3,13.2,1.3,25.8,10.4,-2.7,98,88,80,30.60,30.24,3,1,6,0.00
2014-1-10,40.6,34.6,27.8,40.6,31.8,-99.9,100,98,99,30.23,29.60,6,1,11,0.86
2014-1-11,40.3,35.3,31.9,40.3,33.8,27.6,100,94,82,29.82,29.46,9,6,11,0.14
2014-1-12,42.2,33.9,28.8,33.4,30.0,26.6,95,86,70,29.98,29.70,9,4,10,0.00
2014-1-13,45.4,39.6,28.4,37.1,33.5,26.1,93,79,68,29.82,29.60,9,6,12,0.00
2014-1-14,35.8,28.0,22.9,33.1,23.9,17.1,99,85,69,29.91,29.70,16,6,19,0.01
2014-1-15,22.5,18.8,14.8,17.3,12.8,10.6,89,77,66,30.14,29.92,8,4,14,0.00
2014-1-16,31.5,25.5,17.3,31.0,19.1,-99.9,98,83,68,29.97,29.60,12,6,16,0.00
2014-1-17,21.8,15.6,13.1,14.6,9.8,6.4,85,78,69,30.05,29.75,8,5,10,0.00
2014-1-18,19.2,15.4,9.5,17.3,12.3,6.2,95,87,77,30.02,29.82,6,2,7,0.00
2014-1-19,38.5,24.2,9.5,29.9,20.1,7.2,94,85,71,29.94,29.60,14,8,16,0.06
2014-1-20,38.0,31.2,20.5,30.3,26.2,14.0,92,82,73,30.03,29.60,9,5,11,0.06
2014-1-21,19.4,11.1,0.3,13.9,2.9,-6.0,87,70,53,30.31,30.04,11,4,14,0.00
2014-1-22,14.3,5.6,-3.7,11.4,0.1,-8.6,100,78,58,30.27,29.99,8,3,12,0.00
2014-1-23,11.2,1.8,-5.2,-0.4,-8.8,-99.9,73,65,59,30.68,30.22,9,6,12,0.00
2014-1-24,21.9,8.5,-7.5,20.4,1.3,-13.8,94,73,59,30.64,29.60,15,9,18,0.01
2014-1-25,30.7,19.1,5.0,30.6,8.8,-6.1,100,66,36,29.93,29.45,16,9,26,0.00
2014-1-26,30.4,18.3,4.7,25.3,12.5,-3.0,92,78,49,29.91,29.48,17,6,19,0.00
2014-1-27,7.4,-1.7,-9.8,-0.3,-11.2,-18.4,72,63,52,30.52,29.85,16,8,18,0.00
2014-1-28,2.8,-5.4,-14.0,-8.1,-15.6,-99.9,74,65,56,30.55,30.34,8,4,11,0.00
2014-1-29,20.8,10.3,-1.6,7.6,-0.2,-8.2,100,63,47,30.34,30.14,10,4,12,0.00
2014-1-30,33.2,25.1,17.2,29.0,14.3,-99.9,94,69,54,30.13,29.76,13,7,14,0.00
2014-1-31,32.2,24.6,22.1,27.9,19.9,16.0,95,82,68,30.20,29.94,9,1,9,0.00
2014-2-1,31.0,28.4,24.8,30.4,27.7,23.6,100,97,91,30.13,29.86,7,2,9,0.00
2014-2-2,26.9,18.7,9.7,24.6,14.0,6.9,93,82,71,30.37,30.11,8,4,12,0.00
2014-2-3,23.0,12.6,5.6,10.6,5.9,0.8,91,75,53,30.47,30.35,5,1,5,0.00
2014-2-4,23.3,16.1,6.7,17.2,10.5,1.3,100,79,61,30.49,30.09,7,2,10,0.00
2014-2-5,25.0,20.7,11.9,23.0,18.5,7.5,97,91,80,30.49,30.02,15,9,15,0.00
2014-2-6,11.2,2.2,-3.5,6.8,-3.7,-10.0,88,76,64,30.53,30.47,10,5,11,0.00
2014-2-7,9.5,1.8,-6.1,-1.0,-7.4,-99.9,77,69,59,30.52,30.44,10,4,10,0.00
2014-2-8,17.7,10.5,0.9,13.0,5.9,-4.4,91,82,74,30.44,30.19,3,0,3,0.00
2014-2-9,20.6,14.6,4.7,15.0,9.4,0.7,93,80,62,30.34,30.16,6,3,8,0.00
2014-2-10,14.9,5.0,-2.6,2.0,-2.7,-8.0,85,71,52,30.54,30.34,6,3,10,0.00
2014-2-11,15.2,2.5,-6.8,2.0,-4.9,-11.4,82,72,54,30.61,30.43,5,1,6,0.00
2014-2-12,24.7,8.8,-5.6,12.0,2.1,-9.9,85,74,57,30.47,30.10,2,0,6,0.00
2014-2-13,31.8,18.1,4.3,26.6,10.9,0.3,85,74,55,30.09,29.59,15,3,20,0.00
2014-2-14,22.7,18.5,10.9,16.6,12.4,6.7,83,77,65,29.97,29.63,8,4,10,0.00
2014-2-15,26.1,15.8,9.5,15.8,9.8,4.6,90,77,60,30.15,29.97,5,2,10,0.00
2014-2-16,24.4,20.3,13.6,20.6,14.1,-99.9,93,83,74,30.34,29.99,10,3,11,0.00
2014-2-17,28.4,22.0,15.6,27.5,19.5,13.2,98,90,77,30.34,29.74,11,5,19,0.00
2014-2-18,45.2,35.3,22.1,33.6,28.4,21.0,97,77,57,30.06,29.70,8,4,12,0.03
2014-2-19,43.3,35.8,29.0,32.5,27.1,-99.9,96,78,60,30.05,29.61,8,3,13,0.00
2014-2-20,50.1,37.4,31.6,50.1,36.0,30.6,100,95,80,29.99,29.32,20,6,24,1.32
2014-2-21,36.6,33.0,29.1,36.6,30.3,19.8,100,90,67,29.87,29.48,21,13,26,0.00
2014-2-22,34.9,30.3,25.0,34.9,30.3,25.0,100,100,100,30.09,29.87,8,4,8,0.00
2014-2-23,30.1,23.3,16.9,30.1,23.3,16.9,100,100,100,30.27,30.09,7,4,12,0.00
2014-2-24,16.5,13.1,10.9,16.5,13.1,10.9,100,100,100,30.31,30.11,7,5,9,0.00